Etusivu
METAR-TAF:

METAR-TAF

Lentoasemat :

Borlänge, Ruotsi

Leveyspiiri: 60-26N, Pituuspiiri: 015-31E, korkeus merenpinnasta: 145 m

Tämänhetkinen sää

Tämä raportti tehtiin 37 minuuttia sitten, kello 17.20 UTC
Tuuli 6 kn koillisesta
Lämpötila -5°C
Kosteus 93%
Ilmanpaine 1028 hPa
Näkyvyys 10 km tai enemmän
Muutamia pilviä 1400 ft:n korkeudessa
Pilvistä 2100 ft:n korkeudessa
heikkoa lumisadetta

METAR: ESSD 191720Z 04006KT 9999 -SN FEW014 OVC021 M05/M06 Q1028

Aika: 18:57 (17:57 UTC)

Sääennuste

Tämä raportti tehtiin 27 minuuttia sitten, kello 17.30 UTC
Ennuste voimassa 19. päivästä klo 18 UTC - 19. päivään klo 20 UTC
Tuuli 4 kn pohjoisesta/koillisesta
Näkyvyys 10 km tai enemmän
Hajonneita pilviä 1800 ft:n korkeudessa
heikkoa lumisadetta
Todennäköisyys 40%
19. päivästä klo 18 UTC - 19. päivään klo 20 UTC
Näkyvyys: 4000 m
Hajonneita pilviä 900 ft:n korkeudessa

TAF: ESSD 191730Z 1918/1920 03004KT 9999 -SN BKN018 PROB40 1918/1920 4000 BKN009

Säähavainnot ja -ennusteet yli 4000 lentoasemalta (METAR- ja TAF-raportit).

Käytössä olevat sääasemat on merkitty karttaan keltaisilla ja punaisilla pisteillä.

Aseta hiiri pisteen päälle nähdäksesi sääaseman nimen.

Klikkaa sitten nähdäksesi säähavainnot ja -ennusteet.

Kartan vaihtaminen: klikkaa mustalla rastilla varustettuja vihreitä pisteitä, niin voit zoomata sisään; viivalla varustettua vihreää pistettä, niin voit zoomata ulos tai vihreitä nuolia, niin pääset viereisille kartoille.


METAR-TAF: